Terminal Aerodrome Forecast
Issued by NWS Albuquerque, NM

Home | Current Version | Previous Version | Text Only | Print | Product List | Glossary On
Versions: 1 2 3 4 5 6 7 8 9 10 11 12 13 14 15 16 17 18 19 20
000
FTUS45 KABQ 022300
TAFABQ
TAF
KABQ 022328Z 0300/0324 18022G32KT P6SM VCSH BKN045 OVC070
     FM030300 23015G25KT P6SM -SHRA OVC035
     FM030700 27012G20KT P6SM VCSH OVC035
      TEMPO 0307/0311 5SM -RASN BKN015 OVC028
     FM031300 30007KT P6SM SCT030 SCT070
     FM031800 25013KT P6SM SCT050 SCT080=

USA.gov is the U.S. government's official web portal to all federal, state and local government web resources and services.